Luminous Kobe-2 — JJ3868 — position and weather

sailwx.info

Track history (hours):
 
Tides and Currents Weather Stations Pressure Air Temp Water Temp Dewpoint Dewpoint Depression Visibility Wind Speed Wind Dir Waves Ship Positions

Luminous Kobe-2

Last reported at 2017-Jun-25 07:00 UTC. Time now 2017-Jun-25 07:14 UTC.
Position N 34°41' E 135°11'.

Length 105 m; draft 4.5 m.

Type: Passenger vessel. MMSI: 431000469.

Date/timePositionNaut miles runAvg speedWind from/ knotsBaromVisibWave heightAir tempDewpointWater temp
2017-Jun-25 07:00N 34°41' E 135°11'0 0.0
2017-Jun-25 06:30N 34°41' E 135°11'0 0.0
2017-Jun-25 06:00N 34°41' E 135°11'0 0.0
2017-Jun-25 05:30N 34°41' E 135°11'0 0.0
2017-Jun-25 04:59N 34°41' E 135°11'2 5.1
2017-Jun-25 04:30N 34°38' E 135°11'4 8.5
2017-Jun-25 04:00N 34°36' E 135°06'510.0
2017-Jun-25 03:30N 34°38' E 135°12'3 6.8
2017-Jun-25 03:00N 34°41' E 135°11'0 0.0
2017-Jun-25 02:28N 34°41' E 135°11'0 0.0
2017-Jun-25 01:58N 34°41' E 135°11'0 0.0
2017-Jun-25 01:28N 34°41' E 135°11'0 0.0
2017-Jun-25 00:52N 34°41' E 135°11'0 0.0
2017-Jun-25 00:22N 34°41' E 135°11'0 0.0
2017-Jun-24 23:58N 34°41' E 135°11'0 0.0
2017-Jun-24 23:28N 34°41' E 135°11'0 0.0
2017-Jun-24 22:58N 34°41' E 135°11'0 0.0
2017-Jun-24 22:22N 34°41' E 135°11'0 0.0
2017-Jun-24 21:58N 34°41' E 135°11'0 0.0
2017-Jun-24 21:28N 34°41' E 135°11'0 0.0
2017-Jun-24 20:58N 34°41' E 135°11'0 0.0
2017-Jun-24 20:28N 34°41' E 135°11'0 0.0
2017-Jun-24 19:58N 34°41' E 135°11'0 0.0
2017-Jun-24 19:22N 34°41' E 135°11'0 0.0
2017-Jun-24 18:58N 34°41' E 135°11'0 0.0
2017-Jun-24 18:28N 34°41' E 135°11'0 0.0
2017-Jun-24 17:58N 34°41' E 135°11'0 0.0
2017-Jun-24 17:22N 34°41' E 135°11'0 0.0
2017-Jun-24 16:58N 34°41' E 135°11'0 0.0
2017-Jun-24 16:28N 34°41' E 135°11'0 0.0
2017-Jun-24 15:58N 34°41' E 135°11'0 0.0
2017-Jun-24 15:28N 34°41' E 135°11'0 0.0
2017-Jun-24 14:58N 34°41' E 135°11'0 0.0
2017-Jun-24 13:46N 34°41' E 135°11'0 0.0
2017-Jun-24 13:28N 34°41' E 135°11'0 0.0
2017-Jun-24 12:58N 34°41' E 135°11'0 0.0
2017-Jun-24 12:28N 34°41' E 135°11'1 2.7
2017-Jun-24 12:00N 34°40' E 135°11'612.1
2017-Jun-24 11:30N 34°36' E 135°06'611.3
2017-Jun-24 11:00N 34°37' E 134°59'612.9
2017-Jun-24 10:30N 34°37' E 135°07'510.3
2017-Jun-24 10:00N 34°41' E 135°11'0 0.0
2017-Jun-24 09:27N 34°41' E 135°11'0 0.0
2017-Jun-24 08:58N 34°41' E 135°11'2 5.1
2017-Jun-24 08:30N 34°38' E 135°11'2 4.9
2017-Jun-24 08:00N 34°37' E 135°09'3 6.3
2017-Jun-24 07:30N 34°38' E 135°12'3 6.6
2017-Jun-24 07:00N 34°41' E 135°11'0 0.0
2017-Jun-24 06:28N 34°41' E 135°11'0 0.0
2017-Jun-24 05:58N 34°41' E 135°11'0 0.0
2017-Jun-24 05:28N 34°41' E 135°11'0 0.0
2017-Jun-24 05:00N 34°41' E 135°11'3 5.5
2017-Jun-24 04:30N 34°38' E 135°11'4 7.1
2017-Jun-24 04:00N 34°36' E 135°07'4 8.7
2017-Jun-24 03:30N 34°38' E 135°12'3 6.4
2017-Jun-24 03:00N 34°41' E 135°11'0 0.0
2017-Jun-24 02:26N 34°41' E 135°11'0 0.0
2017-Jun-24 01:56N 34°41' E 135°11'0 0.0
2017-Jun-24 01:26N 34°41' E 135°11'0 0.0
2017-Jun-24 00:50N 34°41' E 135°11'0 0.0
2017-Jun-24 00:26N 34°41' E 135°11'0 0.0
2017-Jun-23 23:56N 34°41' E 135°11'0 0.0
2017-Jun-23 23:26N 34°41' E 135°11'0 0.0
2017-Jun-23 22:56N 34°41' E 135°11'0 0.0
2017-Jun-23 22:26N 34°41' E 135°11'0 0.0
2017-Jun-23 21:56N 34°41' E 135°11'0 0.0
2017-Jun-23 21:26N 34°41' E 135°11'0 0.0
2017-Jun-23 20:44N 34°41' E 135°11'0 0.0
2017-Jun-23 20:26N 34°41' E 135°11'0 0.0
2017-Jun-23 19:56N 34°41' E 135°11'0 0.0
2017-Jun-23 19:26N 34°41' E 135°11'0 0.0
2017-Jun-23 18:50N 34°41' E 135°11'0 0.0
2017-Jun-23 18:26N 34°41' E 135°11'0 0.0
2017-Jun-23 17:56N 34°41' E 135°11'0 0.0
2017-Jun-23 17:26N 34°41' E 135°11'0 0.0
2017-Jun-23 16:44N 34°41' E 135°11'0 0.0
2017-Jun-23 16:26N 34°41' E 135°11'0 0.0
2017-Jun-23 15:56N 34°41' E 135°11'0 0.0
2017-Jun-23 15:26N 34°41' E 135°11'0 0.0
2017-Jun-23 14:56N 34°41' E 135°11'0 0.0
2017-Jun-23 13:56N 34°41' E 135°11'0 0.0
2017-Jun-23 13:26N 34°41' E 135°11'0 0.0
2017-Jun-23 12:56N 34°41' E 135°11'0 0.0
2017-Jun-23 12:26N 34°41' E 135°11'1 2.9
2017-Jun-23 12:00N 34°40' E 135°11'611.9
2017-Jun-23 11:30N 34°36' E 135°06'610.9
2017-Jun-23 10:59N 34°37' E 134°59'613.5
2017-Jun-23 10:30N 34°37' E 135°07'510.6
2017-Jun-23 10:00N 34°41' E 135°11'0 0.0
2017-Jun-23 09:24N 34°41' E 135°11'1 3.3
2017-Jun-23 09:00N 34°39' E 135°11'4 8.4
2017-Jun-23 08:30N 34°38' E 135°07'5 9.8
2017-Jun-23 08:00N 34°41' E 135°11'0 0.0
2017-Jun-23 07:26N 34°41' E 135°11'0 0.0
2017-Jun-23 06:56N 34°41' E 135°11'0 0.0
2017-Jun-23 06:26N 34°41' E 135°11'0 0.0
2017-Jun-23 05:56N 34°41' E 135°11'0 0.0
2017-Jun-23 05:26N 34°41' E 135°11'0 0.0
2017-Jun-23 05:00N 34°41' E 135°11'2 5.0
2017-Jun-23 04:30N 34°38' E 135°11'3 5.3
2017-Jun-23 04:00N 34°37' E 135°08'3 6.5
2017-Jun-23 03:30N 34°38' E 135°12'3 6.8
2017-Jun-23 03:00N 34°41' E 135°11'0 0.0
2017-Jun-23 02:29N 34°41' E 135°11'0 0.0
2017-Jun-23 01:59N 34°41' E 135°11'0 0.0
2017-Jun-23 01:29N 34°41' E 135°11'0 0.0
2017-Jun-23 00:59N 34°41' E 135°11'0 0.0
2017-Jun-23 00:23N 34°41' E 135°11'0 0.0
2017-Jun-22 23:59N 34°41' E 135°11'0 0.0
2017-Jun-22 23:29N 34°41' E 135°11'0 0.0
2017-Jun-22 22:17N 34°41' E 135°11'0 0.0
2017-Jun-22 21:47N 34°41' E 135°11'0 0.0
2017-Jun-22 21:23N 34°41' E 135°11'0 0.0
2017-Jun-22 20:53N 34°41' E 135°11'0 0.0
2017-Jun-22 20:29N 34°41' E 135°11'0 0.0
2017-Jun-22 19:53N 34°41' E 135°11'0 0.0
2017-Jun-22 19:23N 34°41' E 135°11'0 0.0
2017-Jun-22 18:59N 34°41' E 135°11'0 0.0
2017-Jun-22 18:23N 34°41' E 135°11'0 0.0
2017-Jun-22 17:59N 34°41' E 135°11'0 0.0
2017-Jun-22 17:17N 34°41' E 135°11'0 0.0
2017-Jun-22 16:59N 34°41' E 135°11'0 0.0
2017-Jun-22 16:29N 34°41' E 135°11'0 0.0
2017-Jun-22 15:59N 34°41' E 135°11'0 0.0
2017-Jun-22 15:29N 34°41' E 135°11'0 0.0
2017-Jun-22 14:59N 34°41' E 135°11'0 0.0
2017-Jun-22 14:29N 34°41' E 135°11'0 0.0
2017-Jun-22 13:29N 34°41' E 135°11'0 0.0
2017-Jun-22 12:59N 34°41' E 135°11'0 0.0
2017-Jun-22 12:28N 34°41' E 135°11'1 2.8
2017-Jun-22 12:00N 34°40' E 135°11'612.0
2017-Jun-22 11:30N 34°35' E 135°06'612.2
2017-Jun-22 11:00N 34°37' E 134°59'713.1
2017-Jun-22 10:30N 34°37' E 135°07'611.1
2017-Jun-22 10:00N 34°41' E 135°11'0 0.0
2017-Jun-22 09:25N 34°41' E 135°11'1 2.9
2017-Jun-22 09:00N 34°40' E 135°12'4 8.3
2017-Jun-22 08:31N 34°38' E 135°07'5 9.3
2017-Jun-22 08:00N 34°41' E 135°11'0 0.0
2017-Jun-22 07:30N 34°41' E 135°11'0 0.0
2017-Jun-22 07:00N 34°41' E 135°11'0 0.0
2017-Jun-22 06:30N 34°41' E 135°11'0 0.0
2017-Jun-22 06:00N 34°41' E 135°11'0 0.0
2017-Jun-22 05:18N 34°41' E 135°11'0 0.0
2017-Jun-22 05:00N 34°41' E 135°11'3 5.7
2017-Jun-22 04:30N 34°38' E 135°10'4 7.0
2017-Jun-22 04:00N 34°36' E 135°06'5 9.9
2017-Jun-22 03:30N 34°38' E 135°12'3 6.6
2017-Jun-22 03:00N 34°41' E 135°11'0 0.0
2017-Jun-22 02:30N 34°41' E 135°11'0 0.0
2017-Jun-22 01:36N 34°41' E 135°11'0 0.0
2017-Jun-22 01:18N 34°41' E 135°11'0 0.0
2017-Jun-22 00:54N 34°41' E 135°11'0 0.0
2017-Jun-22 00:30N 34°41' E 135°11'0 0.0
2017-Jun-21 23:54N 34°41' E 135°11'0 0.0
2017-Jun-21 23:18N 34°41' E 135°11'0 0.0
2017-Jun-21 23:00N 34°41' E 135°11'0 0.0
2017-Jun-21 22:30N 34°41' E 135°11'0 0.0
2017-Jun-21 21:48N 34°41' E 135°11'0 0.0
2017-Jun-21 21:30N 34°41' E 135°11'0 0.0
2017-Jun-21 21:00N 34°41' E 135°11'0 0.0
2017-Jun-21 20:30N 34°41' E 135°11'0 0.0
2017-Jun-21 20:00N 34°41' E 135°11'0 0.0
2017-Jun-21 19:30N 34°41' E 135°11'0 0.0
2017-Jun-21 18:48N 34°41' E 135°11'0 0.0
2017-Jun-21 18:24N 34°41' E 135°11'0 0.0
2017-Jun-21 18:00N 34°41' E 135°11'0 0.0
2017-Jun-21 17:30N 34°41' E 135°11'0 0.0
2017-Jun-21 17:00N 34°41' E 135°11'0 0.0
2017-Jun-21 16:30N 34°41' E 135°11'0 0.0
2017-Jun-21 15:54N 34°41' E 135°11'0 0.0
2017-Jun-21 15:30N 34°41' E 135°11'0 0.0
2017-Jun-21 15:00N 34°41' E 135°11'0 0.0
2017-Jun-21 14:30N 34°41' E 135°11'0 0.0
2017-Jun-21 13:24N 34°41' E 135°11'0 0.0
2017-Jun-21 13:00N 34°41' E 135°11'0 0.0
2017-Jun-21 12:30N 34°41' E 135°11'1 2.6
2017-Jun-21 12:00N 34°40' E 135°11'510.8
2017-Jun-21 11:30N 34°36' E 135°07'712.7
2017-Jun-21 11:00N 34°37' E 134°59'713.3
2017-Jun-21 10:30N 34°37' E 135°07'510.5
2017-Jun-21 10:00N 34°41' E 135°11'0 0.0
2017-Jun-21 09:25N 34°41' E 135°11'1 2.4
2017-Jun-21 09:00N 34°40' E 135°12'4 8.7
2017-Jun-21 08:30N 34°37' E 135°07'5 9.9
2017-Jun-21 08:01N 34°41' E 135°11'0 0.1
2017-Jun-21 07:27N 34°41' E 135°11'0 0.0
2017-Jun-21 06:57N 34°41' E 135°11'0 0.0
2017-Jun-21 06:15N 34°41' E 135°11'0 0.0
2017-Jun-21 05:57N 34°41' E 135°11'0 0.0
2017-Jun-21 05:27N 34°41' E 135°11'0 0.0
2017-Jun-21 05:00N 34°41' E 135°11'3 5.4
2017-Jun-21 04:30N 34°38' E 135°10'3 6.3
2017-Jun-21 04:00N 34°37' E 135°07'5 9.0
2017-Jun-21 03:30N 34°38' E 135°12'3 6.8
2017-Jun-21 03:00N 34°41' E 135°11'0 0.0
2017-Jun-21 02:21N 34°41' E 135°11'0 0.0
2017-Jun-21 01:51N 34°41' E 135°11'0 0.0
2017-Jun-21 01:27N 34°41' E 135°11'0 0.0
2017-Jun-21 00:57N 34°41' E 135°11'0 0.0
2017-Jun-21 00:27N 34°41' E 135°11'0 0.0
2017-Jun-20 23:57N 34°41' E 135°11'0 0.0
2017-Jun-20 23:27N 34°41' E 135°11'0 0.0
2017-Jun-20 22:57N 34°41' E 135°11'0 0.0
2017-Jun-20 22:27N 34°41' E 135°11'0 0.0
2017-Jun-20 21:57N 34°41' E 135°11'0 0.0
2017-Jun-20 21:27N 34°41' E 135°11'0 0.0
2017-Jun-20 20:57N 34°41' E 135°11'0 0.0
2017-Jun-20 20:27N 34°41' E 135°11'0 0.0
2017-Jun-20 19:57N 34°41' E 135°11'0 0.0
2017-Jun-20 19:27N 34°41' E 135°11'0 0.0
2017-Jun-20 18:57N 34°41' E 135°11'0 0.0
2017-Jun-20 18:27N 34°41' E 135°11'0 0.0
2017-Jun-20 17:57N 34°41' E 135°11'0 0.0
2017-Jun-20 17:27N 34°41' E 135°11'0 0.0
2017-Jun-20 16:57N 34°41' E 135°11'0 0.0
2017-Jun-20 16:27N 34°41' E 135°11'0 0.0
2017-Jun-20 15:57N 34°41' E 135°11'0 0.0
2017-Jun-20 15:27N 34°41' E 135°11'0 0.0
2017-Jun-20 14:51N 34°41' E 135°11'0 0.0
2017-Jun-20 14:27N 34°41' E 135°11'0 0.0
2017-Jun-20 13:27N 34°41' E 135°11'0 0.0
2017-Jun-20 12:57N 34°41' E 135°11'0 0.0
2017-Jun-20 12:27N 34°41' E 135°11'2 3.7
2017-Jun-20 12:00N 34°39' E 135°11'510.7
2017-Jun-20 11:30N 34°36' E 135°06'611.2
2017-Jun-20 10:58N 34°38' E 134°59'613.8
2017-Jun-20 10:30N 34°37' E 135°07'510.6
2017-Jun-20 10:00N 34°41' E 135°11'0 0.0
2017-Jun-20 09:30N 34°41' E 135°11'1 2.1
2017-Jun-20 09:00N 34°40' E 135°12'4 8.4
2017-Jun-20 08:30N 34°37' E 135°07'5 9.3
2017-Jun-20 08:00N 34°41' E 135°11'0 0.0
2017-Jun-20 07:30N 34°41' E 135°11'0 0.0
2017-Jun-20 07:00N 34°41' E 135°11'0 0.0
2017-Jun-20 06:30N 34°41' E 135°11'0 0.0
2017-Jun-20 06:00N 34°41' E 135°11'0 0.0
2017-Jun-20 05:30N 34°41' E 135°11'0 0.0
2017-Jun-20 05:00N 34°41' E 135°11'3 5.0
2017-Jun-20 04:30N 34°38' E 135°11'4 7.5
2017-Jun-20 04:00N 34°37' E 135°07'5 9.8
2017-Jun-20 03:30N 34°37' E 135°12'3 6.8
2017-Jun-20 03:00N 34°41' E 135°11'0 0.0
2017-Jun-20 02:28N 34°41' E 135°11'0 0.0
2017-Jun-20 01:52N 34°41' E 135°11'0 0.0
2017-Jun-20 01:28N 34°41' E 135°11'0 0.0
2017-Jun-20 00:58N 34°41' E 135°11'0 0.0
2017-Jun-20 00:28N 34°41' E 135°11'0 0.0
2017-Jun-19 23:58N 34°41' E 135°11'0 0.0
2017-Jun-19 23:22N 34°41' E 135°11'0 0.0
2017-Jun-19 22:58N 34°41' E 135°11'0 0.0
2017-Jun-19 22:10N 34°41' E 135°11'0 0.0
2017-Jun-19 21:52N 34°41' E 135°11'0 0.0
2017-Jun-19 21:28N 34°41' E 135°11'0 0.0
2017-Jun-19 20:58N 34°41' E 135°11'0 0.0
2017-Jun-19 20:28N 34°41' E 135°11'0 0.0
2017-Jun-19 19:58N 34°41' E 135°11'0 0.0
2017-Jun-19 19:28N 34°41' E 135°11'0 0.0
2017-Jun-19 18:46N 34°41' E 135°11'0 0.0
2017-Jun-19 18:28N 34°41' E 135°11'0 0.0
2017-Jun-19 17:58N 34°41' E 135°11'0 0.0
2017-Jun-19 17:28N 34°41' E 135°11'0 0.0
2017-Jun-19 16:58N 34°41' E 135°11'0 0.0
2017-Jun-19 16:28N 34°41' E 135°11'0 0.0
2017-Jun-19 15:58N 34°41' E 135°11'0 0.0
2017-Jun-19 15:28N 34°41' E 135°11'0 0.0
2017-Jun-19 14:58N 34°41' E 135°11'0 0.0
2017-Jun-19 13:58N 34°41' E 135°11'0 0.0
2017-Jun-19 13:28N 34°41' E 135°11'0 0.0
2017-Jun-19 12:46N 34°41' E 135°11'0 0.0
2017-Jun-19 12:28N 34°41' E 135°11'1 2.5
2017-Jun-19 12:00N 34°40' E 135°12'611.4
2017-Jun-19 11:30N 34°36' E 135°06'610.8
2017-Jun-19 10:57N 34°38' E 134°60'613.8
2017-Jun-19 10:30N 34°37' E 135°07'510.6
2017-Jun-19 10:00N 34°41' E 135°11'0 0.0
2017-Jun-19 09:25N 34°41' E 135°11'1 2.7
2017-Jun-19 09:00N 34°40' E 135°11'4 8.5
2017-Jun-19 08:31N 34°37' E 135°07'5 9.5
2017-Jun-19 08:00N 34°41' E 135°11'0 0.0
2017-Jun-19 07:27N 34°41' E 135°11'0 0.0
2017-Jun-19 06:57N 34°41' E 135°11'0 0.0
2017-Jun-19 06:15N 34°41' E 135°11'0 0.0
2017-Jun-19 05:57N 34°41' E 135°11'0 0.0
2017-Jun-19 05:09N 34°41' E 135°11'0 0.0
2017-Jun-19 05:00N 34°41' E 135°11'3 4.9
2017-Jun-19 04:30N 34°38' E 135°11'2 4.1
2017-Jun-19 04:00N 34°37' E 135°09'3 5.7
2017-Jun-19 03:30N 34°38' E 135°12'3 6.9
2017-Jun-19 03:00N 34°41' E 135°11'0 0.0
2017-Jun-19 02:28N 34°41' E 135°11'0 0.0
2017-Jun-19 01:58N 34°41' E 135°11'0 0.0
2017-Jun-19 01:28N 34°41' E 135°11'0 0.0
2017-Jun-19 00:58N 34°41' E 135°11'0 0.0
2017-Jun-19 00:28N 34°41' E 135°11'0 0.0
2017-Jun-18 23:58N 34°41' E 135°11'0 0.0
2017-Jun-18 23:22N 34°41' E 135°11'0 0.0
2017-Jun-18 22:40N 34°41' E 135°11'0 0.0
2017-Jun-18 22:16N 34°41' E 135°11'0 0.0
2017-Jun-18 21:58N 34°41' E 135°11'0 0.0
2017-Jun-18 21:22N 34°41' E 135°11'0 0.0
2017-Jun-18 20:58N 34°41' E 135°11'0 0.0
2017-Jun-18 20:22N 34°41' E 135°11'0 0.0
2017-Jun-18 19:58N 34°41' E 135°11'0 0.0
2017-Jun-18 19:28N 34°41' E 135°11'0 0.0
2017-Jun-18 18:52N 34°41' E 135°11'0 0.0
2017-Jun-18 18:28N 34°41' E 135°11'0 0.0
2017-Jun-18 17:58N 34°41' E 135°11'0 0.0
2017-Jun-18 17:28N 34°41' E 135°11'0 0.0
2017-Jun-18 16:46N 34°41' E 135°11'0 0.0
2017-Jun-18 16:28N 34°41' E 135°11'0 0.0
2017-Jun-18 15:58N 34°41' E 135°11'0 0.0
2017-Jun-18 15:28N 34°41' E 135°11'0 0.0
2017-Jun-18 14:46N 34°41' E 135°11'0 0.0
2017-Jun-18 13:58N 34°41' E 135°11'0 0.0
2017-Jun-18 13:28N 34°41' E 135°11'0 0.0
2017-Jun-18 12:52N 34°41' E 135°11'0 0.0
2017-Jun-18 12:28N 34°41' E 135°11'1 2.9
2017-Jun-18 12:00N 34°39' E 135°11'612.4
2017-Jun-18 11:30N 34°35' E 135°06'611.5
2017-Jun-18 11:00N 34°38' E 134°59'612.6
2017-Jun-18 10:30N 34°37' E 135°07'510.3
2017-Jun-18 10:00N 34°41' E 135°11'0 0.0
2017-Jun-18 09:26N 34°41' E 135°11'0 0.0
2017-Jun-18 08:59N 34°41' E 135°11'2 4.5
2017-Jun-18 08:30N 34°39' E 135°11'3 5.5
2017-Jun-18 08:00N 34°37' E 135°09'3 6.5
2017-Jun-18 07:30N 34°38' E 135°12'3 6.7
2017-Jun-18 07:00N 34°41' E 135°11'0 0.0
2017-Jun-18 06:26N 34°41' E 135°11'0 0.0
2017-Jun-18 05:56N 34°41' E 135°11'0 0.0
2017-Jun-18 05:26N 34°41' E 135°11'0 0.0
2017-Jun-18 04:59N 34°41' E 135°11'3 5.4
2017-Jun-18 04:30N 34°38' E 135°10'4 7.3
2017-Jun-18 04:00N 34°37' E 135°06'510.1
2017-Jun-18 03:30N 34°38' E 135°12'3 6.6
2017-Jun-18 03:00N 34°41' E 135°11'0 0.0
2017-Jun-18 02:19N 34°41' E 135°11'0 0.0
2017-Jun-18 01:55N 34°41' E 135°11'0 0.0
2017-Jun-18 01:25N 34°41' E 135°11'0 0.0
2017-Jun-18 00:55N 34°41' E 135°11'0 0.0
2017-Jun-18 00:25N 34°41' E 135°11'0 0.0
2017-Jun-17 23:55N 34°41' E 135°11'0 0.0
2017-Jun-17 23:25N 34°41' E 135°11'0 0.0
2017-Jun-17 22:55N 34°41' E 135°11'0 0.0
2017-Jun-17 22:25N 34°41' E 135°11'0 0.0
2017-Jun-17 21:49N 34°41' E 135°11'0 0.0
2017-Jun-17 21:25N 34°41' E 135°11'0 0.0
2017-Jun-17 20:55N 34°41' E 135°11'0 0.0
2017-Jun-17 20:25N 34°41' E 135°11'0 0.0
2017-Jun-17 19:49N 34°41' E 135°11'0 0.0
2017-Jun-17 19:25N 34°41' E 135°11'0 0.0
2017-Jun-17 18:55N 34°41' E 135°11'0 0.0
2017-Jun-17 18:25N 34°41' E 135°11'0 0.0
2017-Jun-17 17:55N 34°41' E 135°11'0 0.0
2017-Jun-17 17:25N 34°41' E 135°11'0 0.0
2017-Jun-17 16:55N 34°41' E 135°11'0 0.0
2017-Jun-17 16:25N 34°41' E 135°11'0 0.0
2017-Jun-17 15:55N 34°41' E 135°11'0 0.0
2017-Jun-17 15:25N 34°41' E 135°11'0 0.0
2017-Jun-17 14:55N 34°41' E 135°11'0 0.0
2017-Jun-17 14:25N 34°41' E 135°11'0 0.0
2017-Jun-17 13:25N 34°41' E 135°11'0 0.0
2017-Jun-17 12:55N 34°41' E 135°11'0 0.0
2017-Jun-17 12:25N 34°41' E 135°11'1 2.7
2017-Jun-17 12:00N 34°40' E 135°12'612.2
2017-Jun-17 11:30N 34°35' E 135°06'611.1
2017-Jun-17 11:00N 34°37' E 134°60'612.4
2017-Jun-17 10:30N 34°37' E 135°08'5 9.9
2017-Jun-17 10:00N 34°41' E 135°11'0 0.0
2017-Jun-17 09:23N 34°41' E 135°11'0 0.0
2017-Jun-17 08:59N 34°41' E 135°11'2 4.6
2017-Jun-17 08:30N 34°39' E 135°11'3 5.4
2017-Jun-17 08:00N 34°37' E 135°09'3 6.7
2017-Jun-17 07:31N 34°38' E 135°13'3 6.8
2017-Jun-17 07:01N 34°41' E 135°11'0 0.0
2017-Jun-17 06:30N 34°41' E 135°11'0 0.0
2017-Jun-17 06:00N 34°41' E 135°11'0 0.0
2017-Jun-17 05:30N 34°41' E 135°11'0 0.0
2017-Jun-17 05:00N 34°41' E 135°11'3 5.5
2017-Jun-17 04:30N 34°38' E 135°10'4 7.6
2017-Jun-17 04:01N 34°36' E 135°06'510.7
2017-Jun-17 03:30N 34°38' E 135°13'3 6.8
2017-Jun-17 03:00N 34°41' E 135°11'0 0.0
2017-Jun-17 02:28N 34°41' E 135°11'0 0.0
2017-Jun-17 01:58N 34°41' E 135°11'0 0.0
2017-Jun-17 01:28N 34°41' E 135°11'0 0.0
2017-Jun-17 00:58N 34°41' E 135°11'0 0.0
2017-Jun-17 00:28N 34°41' E 135°11'0 0.0
2017-Jun-16 23:58N 34°41' E 135°11'0 0.0
2017-Jun-16 23:28N 34°41' E 135°11'0 0.0
2017-Jun-16 22:58N 34°41' E 135°11'0 0.0
2017-Jun-16 22:28N 34°41' E 135°11'0 0.0
2017-Jun-16 21:40N 34°41' E 135°11'0 0.0
2017-Jun-16 21:28N 34°41' E 135°11'0 0.0
2017-Jun-16 20:40N 34°41' E 135°11'0 0.0
2017-Jun-16 20:28N 34°41' E 135°11'0 0.0
2017-Jun-16 19:52N 34°41' E 135°11'0 0.0
2017-Jun-16 19:28N 34°41' E 135°11'0 0.0
2017-Jun-16 18:58N 34°41' E 135°11'0 0.0
2017-Jun-16 18:22N 34°41' E 135°11'0 0.0
2017-Jun-16 17:58N 34°41' E 135°11'0 0.0
2017-Jun-16 17:28N 34°41' E 135°11'0 0.0
2017-Jun-16 16:58N 34°41' E 135°11'0 0.0
2017-Jun-16 16:28N 34°41' E 135°11'0 0.0
2017-Jun-16 15:52N 34°41' E 135°11'0 0.0
2017-Jun-16 15:28N 34°41' E 135°11'0 0.0
2017-Jun-16 14:58N 34°41' E 135°11'0 0.0
2017-Jun-16 14:28N 34°41' E 135°11'0 0.0
2017-Jun-16 13:28N 34°41' E 135°11'0 0.0
2017-Jun-16 12:58N 34°41' E 135°11'0 0.0
2017-Jun-16 12:28N 34°41' E 135°11'1 2.7
2017-Jun-16 12:01N 34°40' E 135°11'611.9
2017-Jun-16 11:31N 34°35' E 135°06'611.6
2017-Jun-16 11:00N 34°37' E 134°60'612.6
2017-Jun-16 10:30N 34°37' E 135°07'510.3
2017-Jun-16 09:59N 34°41' E 135°11'0 0.0
2017-Jun-16 09:30N 34°41' E 135°11'1 2.1
2017-Jun-16 09:00N 34°40' E 135°12'4 8.4
2017-Jun-16 08:30N 34°38' E 135°07'5 9.5
2017-Jun-16 08:00N 34°41' E 135°11'0 0.0
2017-Jun-16 07:25N 34°41' E 135°11'0 0.0
2017-Jun-16 06:55N 34°41' E 135°11'0 0.0
2017-Jun-16 06:25N 34°41' E 135°11'0 0.0
2017-Jun-16 05:55N 34°41' E 135°11'0 0.0
2017-Jun-16 05:19N 34°41' E 135°11'0 0.0
2017-Jun-16 05:00N 34°41' E 135°11'2 4.7
2017-Jun-16 04:30N 34°39' E 135°11'4 8.6
2017-Jun-16 04:00N 34°37' E 135°06'510.4
2017-Jun-16 03:30N 34°38' E 135°12'3 6.6
2017-Jun-16 03:00N 34°41' E 135°11'0 0.0
2017-Jun-16 02:19N 34°41' E 135°11'0 0.0
2017-Jun-16 01:55N 34°41' E 135°11'0 0.0
2017-Jun-16 01:25N 34°41' E 135°11'0 0.0
2017-Jun-16 00:55N 34°41' E 135°11'0 0.0
2017-Jun-16 00:25N 34°41' E 135°11'0 0.0
2017-Jun-15 23:49N 34°41' E 135°11'0 0.0
2017-Jun-15 23:25N 34°41' E 135°11'0 0.0
2017-Jun-15 22:55N 34°41' E 135°11'0 0.0
2017-Jun-15 22:25N 34°41' E 135°11'0 0.0
2017-Jun-15 21:43N 34°41' E 135°11'0 0.0
2017-Jun-15 21:25N 34°41' E 135°11'0 0.0
2017-Jun-15 20:43N 34°41' E 135°11'0 0.0
2017-Jun-15 20:25N 34°41' E 135°11'0 0.0
2017-Jun-15 19:55N 34°41' E 135°11'0 0.0
2017-Jun-15 19:25N 34°41' E 135°11'0 0.0
2017-Jun-15 18:55N 34°41' E 135°11'0 0.0
2017-Jun-15 18:25N 34°41' E 135°11'0 0.0
2017-Jun-15 17:55N 34°41' E 135°11'0 0.0
2017-Jun-15 17:25N 34°41' E 135°11'0 0.0
2017-Jun-15 16:55N 34°41' E 135°11'0 0.0
2017-Jun-15 16:25N 34°41' E 135°11'0 0.0
2017-Jun-15 15:55N 34°41' E 135°11'0 0.0
2017-Jun-15 15:19N 34°41' E 135°11'0 0.0
2017-Jun-15 14:55N 34°41' E 135°11'0 0.0
2017-Jun-15 13:55N 34°41' E 135°11'0 0.0
2017-Jun-15 13:25N 34°41' E 135°11'0 0.0
2017-Jun-15 12:55N 34°41' E 135°11'0 0.0
2017-Jun-15 12:25N 34°41' E 135°11'1 3.1
2017-Jun-15 12:00N 34°40' E 135°11'612.0
2017-Jun-15 11:30N 34°35' E 135°06'610.9
2017-Jun-15 10:59N 34°38' E 134°60'612.3
2017-Jun-15 10:31N 34°37' E 135°07'510.5
2017-Jun-15 10:00N 34°41' E 135°11'0 0.0
2017-Jun-15 09:29N 34°41' E 135°11'1 2.5
2017-Jun-15 09:00N 34°40' E 135°11'4 8.2
2017-Jun-15 08:31N 34°37' E 135°07'5 9.6
2017-Jun-15 08:00N 34°41' E 135°11'0 0.0
2017-Jun-15 07:26N 34°41' E 135°11'  
Track history (hours):
 
Tides and Currents Weather Stations Pressure Air Temp Water Temp Dewpoint Dewpoint Depression Visibility Wind Speed Wind Dir Waves Ship Positions

Luminous Kobe-2

Last reported at 2017-Jun-25 07:00 UTC. Time now 2017-Jun-25 07:14 UTC.
Position N 34°41' E 135°11'.

Length 105 m; draft 4.5 m.

Type: Passenger vessel. MMSI: 431000469.

Date/timePositionNaut miles runAvg speedWind from/ knotsBaromVisibWave heightAir tempDewpointWater temp
2017-Jun-25 07:00N 34°41' E 135°11'0 0.0
2017-Jun-25 06:30N 34°41' E 135°11'0 0.0
2017-Jun-25 06:00N 34°41' E 135°11'0 0.0
2017-Jun-25 05:30N 34°41' E 135°11'0 0.0
2017-Jun-25 04:59N 34°41' E 135°11'2 5.1
2017-Jun-25 04:30N 34°38' E 135°11'4 8.5
2017-Jun-25 04:00N 34°36' E 135°06'510.0
2017-Jun-25 03:30N 34°38' E 135°12'3 6.8
2017-Jun-25 03:00N 34°41' E 135°11'0 0.0
2017-Jun-25 02:28N 34°41' E 135°11'0 0.0
2017-Jun-25 01:58N 34°41' E 135°11'0 0.0
2017-Jun-25 01:28N 34°41' E 135°11'0 0.0
2017-Jun-25 00:52N 34°41' E 135°11'0 0.0
2017-Jun-25 00:22N 34°41' E 135°11'0 0.0
2017-Jun-24 23:58N 34°41' E 135°11'0 0.0
2017-Jun-24 23:28N 34°41' E 135°11'0 0.0
2017-Jun-24 22:58N 34°41' E 135°11'0 0.0
2017-Jun-24 22:22N 34°41' E 135°11'0 0.0
2017-Jun-24 21:58N 34°41' E 135°11'0 0.0
2017-Jun-24 21:28N 34°41' E 135°11'0 0.0
2017-Jun-24 20:58N 34°41' E 135°11'0 0.0
2017-Jun-24 20:28N 34°41' E 135°11'0 0.0
2017-Jun-24 19:58N 34°41' E 135°11'0 0.0
2017-Jun-24 19:22N 34°41' E 135°11'0 0.0
2017-Jun-24 18:58N 34°41' E 135°11'0 0.0
2017-Jun-24 18:28N 34°41' E 135°11'0 0.0
2017-Jun-24 17:58N 34°41' E 135°11'0 0.0
2017-Jun-24 17:22N 34°41' E 135°11'0 0.0
2017-Jun-24 16:58N 34°41' E 135°11'0 0.0
2017-Jun-24 16:28N 34°41' E 135°11'0 0.0
2017-Jun-24 15:58N 34°41' E 135°11'0 0.0
2017-Jun-24 15:28N 34°41' E 135°11'0 0.0
2017-Jun-24 14:58N 34°41' E 135°11'0 0.0
2017-Jun-24 13:46N 34°41' E 135°11'0 0.0
2017-Jun-24 13:28N 34°41' E 135°11'0 0.0
2017-Jun-24 12:58N 34°41' E 135°11'0 0.0
2017-Jun-24 12:28N 34°41' E 135°11'1 2.7
2017-Jun-24 12:00N 34°40' E 135°11'612.1
2017-Jun-24 11:30N 34°36' E 135°06'611.3
2017-Jun-24 11:00N 34°37' E 134°59'612.9
2017-Jun-24 10:30N 34°37' E 135°07'510.3
2017-Jun-24 10:00N 34°41' E 135°11'0 0.0
2017-Jun-24 09:27N 34°41' E 135°11'0 0.0
2017-Jun-24 08:58N 34°41' E 135°11'2 5.1
2017-Jun-24 08:30N 34°38' E 135°11'2 4.9
2017-Jun-24 08:00N 34°37' E 135°09'3 6.3
2017-Jun-24 07:30N 34°38' E 135°12'3 6.6
2017-Jun-24 07:00N 34°41' E 135°11'0 0.0
2017-Jun-24 06:28N 34°41' E 135°11'0 0.0
2017-Jun-24 05:58N 34°41' E 135°11'0 0.0
2017-Jun-24 05:28N 34°41' E 135°11'0 0.0
2017-Jun-24 05:00N 34°41' E 135°11'3 5.5
2017-Jun-24 04:30N 34°38' E 135°11'4 7.1
2017-Jun-24 04:00N 34°36' E 135°07'4 8.7
2017-Jun-24 03:30N 34°38' E 135°12'3 6.4
2017-Jun-24 03:00N 34°41' E 135°11'0 0.0
2017-Jun-24 02:26N 34°41' E 135°11'0 0.0
2017-Jun-24 01:56N 34°41' E 135°11'0 0.0
2017-Jun-24 01:26N 34°41' E 135°11'0 0.0
2017-Jun-24 00:50N 34°41' E 135°11'0 0.0
2017-Jun-24 00:26N 34°41' E 135°11'0 0.0
2017-Jun-23 23:56N 34°41' E 135°11'0 0.0
2017-Jun-23 23:26N 34°41' E 135°11'0 0.0
2017-Jun-23 22:56N 34°41' E 135°11'0 0.0
2017-Jun-23 22:26N 34°41' E 135°11'0 0.0
2017-Jun-23 21:56N 34°41' E 135°11'0 0.0
2017-Jun-23 21:26N 34°41' E 135°11'0 0.0
2017-Jun-23 20:44N 34°41' E 135°11'0 0.0
2017-Jun-23 20:26N 34°41' E 135°11'0 0.0
2017-Jun-23 19:56N 34°41' E 135°11'0 0.0
2017-Jun-23 19:26N 34°41' E 135°11'0 0.0
2017-Jun-23 18:50N 34°41' E 135°11'0 0.0
2017-Jun-23 18:26N 34°41' E 135°11'0 0.0
2017-Jun-23 17:56N 34°41' E 135°11'0 0.0
2017-Jun-23 17:26N 34°41' E 135°11'0 0.0
2017-Jun-23 16:44N 34°41' E 135°11'0 0.0
2017-Jun-23 16:26N 34°41' E 135°11'0 0.0
2017-Jun-23 15:56N 34°41' E 135°11'0 0.0
2017-Jun-23 15:26N 34°41' E 135°11'0 0.0
2017-Jun-23 14:56N 34°41' E 135°11'0 0.0
2017-Jun-23 13:56N 34°41' E 135°11'0 0.0
2017-Jun-23 13:26N 34°41' E 135°11'0 0.0
2017-Jun-23 12:56N 34°41' E 135°11'0 0.0
2017-Jun-23 12:26N 34°41' E 135°11'1 2.9
2017-Jun-23 12:00N 34°40' E 135°11'611.9
2017-Jun-23 11:30N 34°36' E 135°06'610.9
2017-Jun-23 10:59N 34°37' E 134°59'613.5
2017-Jun-23 10:30N 34°37' E 135°07'510.6
2017-Jun-23 10:00N 34°41' E 135°11'0 0.0
2017-Jun-23 09:24N 34°41' E 135°11'1 3.3
2017-Jun-23 09:00N 34°39' E 135°11'4 8.4
2017-Jun-23 08:30N 34°38' E 135°07'5 9.8
2017-Jun-23 08:00N 34°41' E 135°11'0 0.0
2017-Jun-23 07:26N 34°41' E 135°11'0 0.0
2017-Jun-23 06:56N 34°41' E 135°11'0 0.0
2017-Jun-23 06:26N 34°41' E 135°11'0 0.0
2017-Jun-23 05:56N 34°41' E 135°11'0 0.0
2017-Jun-23 05:26N 34°41' E 135°11'0 0.0
2017-Jun-23 05:00N 34°41' E 135°11'2 5.0
2017-Jun-23 04:30N 34°38' E 135°11'3 5.3
2017-Jun-23 04:00N 34°37' E 135°08'3 6.5
2017-Jun-23 03:30N 34°38' E 135°12'3 6.8
2017-Jun-23 03:00N 34°41' E 135°11'0 0.0
2017-Jun-23 02:29N 34°41' E 135°11'0 0.0
2017-Jun-23 01:59N 34°41' E 135°11'0 0.0
2017-Jun-23 01:29N 34°41' E 135°11'0 0.0
2017-Jun-23 00:59N 34°41' E 135°11'0 0.0
2017-Jun-23 00:23N 34°41' E 135°11'0 0.0
2017-Jun-22 23:59N 34°41' E 135°11'0 0.0
2017-Jun-22 23:29N 34°41' E 135°11'0 0.0
2017-Jun-22 22:17N 34°41' E 135°11'0 0.0
2017-Jun-22 21:47N 34°41' E 135°11'0 0.0
2017-Jun-22 21:23N 34°41' E 135°11'0 0.0
2017-Jun-22 20:53N 34°41' E 135°11'0 0.0
2017-Jun-22 20:29N 34°41' E 135°11'0 0.0
2017-Jun-22 19:53N 34°41' E 135°11'0 0.0
2017-Jun-22 19:23N 34°41' E 135°11'0 0.0
2017-Jun-22 18:59N 34°41' E 135°11'0 0.0
2017-Jun-22 18:23N 34°41' E 135°11'0 0.0
2017-Jun-22 17:59N 34°41' E 135°11'0 0.0
2017-Jun-22 17:17N 34°41' E 135°11'0 0.0
2017-Jun-22 16:59N 34°41' E 135°11'0 0.0
2017-Jun-22 16:29N 34°41' E 135°11'0 0.0
2017-Jun-22 15:59N 34°41' E 135°11'0 0.0
2017-Jun-22 15:29N 34°41' E 135°11'0 0.0
2017-Jun-22 14:59N 34°41' E 135°11'0 0.0
2017-Jun-22 14:29N 34°41' E 135°11'0 0.0
2017-Jun-22 13:29N 34°41' E 135°11'0 0.0
2017-Jun-22 12:59N 34°41' E 135°11'0 0.0
2017-Jun-22 12:28N 34°41' E 135°11'1 2.8
2017-Jun-22 12:00N 34°40' E 135°11'612.0
2017-Jun-22 11:30N 34°35' E 135°06'612.2
2017-Jun-22 11:00N 34°37' E 134°59'713.1
2017-Jun-22 10:30N 34°37' E 135°07'611.1
2017-Jun-22 10:00N 34°41' E 135°11'0 0.0
2017-Jun-22 09:25N 34°41' E 135°11'1 2.9
2017-Jun-22 09:00N 34°40' E 135°12'4 8.3
2017-Jun-22 08:31N 34°38' E 135°07'5 9.3
2017-Jun-22 08:00N 34°41' E 135°11'0 0.0
2017-Jun-22 07:30N 34°41' E 135°11'0 0.0
2017-Jun-22 07:00N 34°41' E 135°11'0 0.0
2017-Jun-22 06:30N 34°41' E 135°11'0 0.0
2017-Jun-22 06:00N 34°41' E 135°11'0 0.0
2017-Jun-22 05:18N 34°41' E 135°11'0 0.0
2017-Jun-22 05:00N 34°41' E 135°11'3 5.7
2017-Jun-22 04:30N 34°38' E 135°10'4 7.0
2017-Jun-22 04:00N 34°36' E 135°06'5 9.9
2017-Jun-22 03:30N 34°38' E 135°12'3 6.6
2017-Jun-22 03:00N 34°41' E 135°11'0 0.0
2017-Jun-22 02:30N 34°41' E 135°11'0 0.0
2017-Jun-22 01:36N 34°41' E 135°11'0 0.0
2017-Jun-22 01:18N 34°41' E 135°11'0 0.0
2017-Jun-22 00:54N 34°41' E 135°11'0 0.0
2017-Jun-22 00:30N 34°41' E 135°11'0 0.0
2017-Jun-21 23:54N 34°41' E 135°11'0 0.0
2017-Jun-21 23:18N 34°41' E 135°11'0 0.0
2017-Jun-21 23:00N 34°41' E 135°11'0 0.0
2017-Jun-21 22:30N 34°41' E 135°11'0 0.0
2017-Jun-21 21:48N 34°41' E 135°11'0 0.0
2017-Jun-21 21:30N 34°41' E 135°11'0 0.0
2017-Jun-21 21:00N 34°41' E 135°11'0 0.0
2017-Jun-21 20:30N 34°41' E 135°11'0 0.0
2017-Jun-21 20:00N 34°41' E 135°11'0 0.0
2017-Jun-21 19:30N 34°41' E 135°11'0 0.0
2017-Jun-21 18:48N 34°41' E 135°11'0 0.0
2017-Jun-21 18:24N 34°41' E 135°11'0 0.0
2017-Jun-21 18:00N 34°41' E 135°11'0 0.0
2017-Jun-21 17:30N 34°41' E 135°11'0 0.0
2017-Jun-21 17:00N 34°41' E 135°11'0 0.0
2017-Jun-21 16:30N 34°41' E 135°11'0 0.0
2017-Jun-21 15:54N 34°41' E 135°11'0 0.0
2017-Jun-21 15:30N 34°41' E 135°11'0 0.0
2017-Jun-21 15:00N 34°41' E 135°11'0 0.0
2017-Jun-21 14:30N 34°41' E 135°11'0 0.0
2017-Jun-21 13:24N 34°41' E 135°11'0 0.0
2017-Jun-21 13:00N 34°41' E 135°11'0 0.0
2017-Jun-21 12:30N 34°41' E 135°11'1 2.6
2017-Jun-21 12:00N 34°40' E 135°11'510.8
2017-Jun-21 11:30N 34°36' E 135°07'712.7
2017-Jun-21 11:00N 34°37' E 134°59'713.3
2017-Jun-21 10:30N 34°37' E 135°07'510.5
2017-Jun-21 10:00N 34°41' E 135°11'0 0.0
2017-Jun-21 09:25N 34°41' E 135°11'1 2.4
2017-Jun-21 09:00N 34°40' E 135°12'4 8.7
2017-Jun-21 08:30N 34°37' E 135°07'5 9.9
2017-Jun-21 08:01N 34°41' E 135°11'0 0.1
2017-Jun-21 07:27N 34°41' E 135°11'0 0.0
2017-Jun-21 06:57N 34°41' E 135°11'0 0.0
2017-Jun-21 06:15N 34°41' E 135°11'0 0.0
2017-Jun-21 05:57N 34°41' E 135°11'0 0.0
2017-Jun-21 05:27N 34°41' E 135°11'0 0.0
2017-Jun-21 05:00N 34°41' E 135°11'3 5.4
2017-Jun-21 04:30N 34°38' E 135°10'3 6.3
2017-Jun-21 04:00N 34°37' E 135°07'5 9.0
2017-Jun-21 03:30N 34°38' E 135°12'3 6.8
2017-Jun-21 03:00N 34°41' E 135°11'0 0.0
2017-Jun-21 02:21N 34°41' E 135°11'0 0.0
2017-Jun-21 01:51N 34°41' E 135°11'0 0.0
2017-Jun-21 01:27N 34°41' E 135°11'0 0.0
2017-Jun-21 00:57N 34°41' E 135°11'0 0.0
2017-Jun-21 00:27N 34°41' E 135°11'0 0.0
2017-Jun-20 23:57N 34°41' E 135°11'0 0.0
2017-Jun-20 23:27N 34°41' E 135°11'0 0.0
2017-Jun-20 22:57N 34°41' E 135°11'0 0.0
2017-Jun-20 22:27N 34°41' E 135°11'0 0.0
2017-Jun-20 21:57N 34°41' E 135°11'0 0.0
2017-Jun-20 21:27N 34°41' E 135°11'0 0.0
2017-Jun-20 20:57N 34°41' E 135°11'0 0.0
2017-Jun-20 20:27N 34°41' E 135°11'0 0.0
2017-Jun-20 19:57N 34°41' E 135°11'0 0.0
2017-Jun-20 19:27N 34°41' E 135°11'0 0.0
2017-Jun-20 18:57N 34°41' E 135°11'0 0.0
2017-Jun-20 18:27N 34°41' E 135°11'0 0.0
2017-Jun-20 17:57N 34°41' E 135°11'0 0.0
2017-Jun-20 17:27N 34°41' E 135°11'0 0.0
2017-Jun-20 16:57N 34°41' E 135°11'0 0.0
2017-Jun-20 16:27N 34°41' E 135°11'0 0.0
2017-Jun-20 15:57N 34°41' E 135°11'0 0.0
2017-Jun-20 15:27N 34°41' E 135°11'0 0.0
2017-Jun-20 14:51N 34°41' E 135°11'0 0.0
2017-Jun-20 14:27N 34°41' E 135°11'0 0.0
2017-Jun-20 13:27N 34°41' E 135°11'0 0.0
2017-Jun-20 12:57N 34°41' E 135°11'0 0.0
2017-Jun-20 12:27N 34°41' E 135°11'2 3.7
2017-Jun-20 12:00N 34°39' E 135°11'510.7
2017-Jun-20 11:30N 34°36' E 135°06'611.2
2017-Jun-20 10:58N 34°38' E 134°59'613.8
2017-Jun-20 10:30N 34°37' E 135°07'510.6
2017-Jun-20 10:00N 34°41' E 135°11'0 0.0
2017-Jun-20 09:30N 34°41' E 135°11'1 2.1
2017-Jun-20 09:00N 34°40' E 135°12'4 8.4
2017-Jun-20 08:30N 34°37' E 135°07'5 9.3
2017-Jun-20 08:00N 34°41' E 135°11'0 0.0
2017-Jun-20 07:30N 34°41' E 135°11'0 0.0
2017-Jun-20 07:00N 34°41' E 135°11'0 0.0
2017-Jun-20 06:30N 34°41' E 135°11'0 0.0
2017-Jun-20 06:00N 34°41' E 135°11'0 0.0
2017-Jun-20 05:30N 34°41' E 135°11'0 0.0
2017-Jun-20 05:00N 34°41' E 135°11'3 5.0
2017-Jun-20 04:30N 34°38' E 135°11'4 7.5
2017-Jun-20 04:00N 34°37' E 135°07'5 9.8
2017-Jun-20 03:30N 34°37' E 135°12'3 6.8
2017-Jun-20 03:00N 34°41' E 135°11'0 0.0
2017-Jun-20 02:28N 34°41' E 135°11'0 0.0
2017-Jun-20 01:52N 34°41' E 135°11'0 0.0
2017-Jun-20 01:28N 34°41' E 135°11'0 0.0
2017-Jun-20 00:58N 34°41' E 135°11'0 0.0
2017-Jun-20 00:28N 34°41' E 135°11'0 0.0
2017-Jun-19 23:58N 34°41' E 135°11'0 0.0
2017-Jun-19 23:22N 34°41' E 135°11'0 0.0
2017-Jun-19 22:58N 34°41' E 135°11'0 0.0
2017-Jun-19 22:10N 34°41' E 135°11'0 0.0
2017-Jun-19 21:52N 34°41' E 135°11'0 0.0
2017-Jun-19 21:28N 34°41' E 135°11'0 0.0
2017-Jun-19 20:58N 34°41' E 135°11'0 0.0
2017-Jun-19 20:28N 34°41' E 135°11'0 0.0
2017-Jun-19 19:58N 34°41' E 135°11'0 0.0
2017-Jun-19 19:28N 34°41' E 135°11'0 0.0
2017-Jun-19 18:46N 34°41' E 135°11'0 0.0
2017-Jun-19 18:28N 34°41' E 135°11'0 0.0
2017-Jun-19 17:58N 34°41' E 135°11'0 0.0
2017-Jun-19 17:28N 34°41' E 135°11'0 0.0
2017-Jun-19 16:58N 34°41' E 135°11'0 0.0
2017-Jun-19 16:28N 34°41' E 135°11'0 0.0
2017-Jun-19 15:58N 34°41' E 135°11'0 0.0
2017-Jun-19 15:28N 34°41' E 135°11'0 0.0
2017-Jun-19 14:58N 34°41' E 135°11'0 0.0
2017-Jun-19 13:58N 34°41' E 135°11'0 0.0
2017-Jun-19 13:28N 34°41' E 135°11'0 0.0
2017-Jun-19 12:46N 34°41' E 135°11'0 0.0
2017-Jun-19 12:28N 34°41' E 135°11'1 2.5
2017-Jun-19 12:00N 34°40' E 135°12'611.4
2017-Jun-19 11:30N 34°36' E 135°06'610.8
2017-Jun-19 10:57N 34°38' E 134°60'613.8
2017-Jun-19 10:30N 34°37' E 135°07'510.6
2017-Jun-19 10:00N 34°41' E 135°11'0 0.0
2017-Jun-19 09:25N 34°41' E 135°11'1 2.7
2017-Jun-19 09:00N 34°40' E 135°11'4 8.5
2017-Jun-19 08:31N 34°37' E 135°07'5 9.5
2017-Jun-19 08:00N 34°41' E 135°11'0 0.0
2017-Jun-19 07:27N 34°41' E 135°11'0 0.0
2017-Jun-19 06:57N 34°41' E 135°11'0 0.0
2017-Jun-19 06:15N 34°41' E 135°11'0 0.0
2017-Jun-19 05:57N 34°41' E 135°11'0 0.0
2017-Jun-19 05:09N 34°41' E 135°11'0 0.0
2017-Jun-19 05:00N 34°41' E 135°11'3 4.9
2017-Jun-19 04:30N 34°38' E 135°11'2 4.1
2017-Jun-19 04:00N 34°37' E 135°09'3 5.7
2017-Jun-19 03:30N 34°38' E 135°12'3 6.9
2017-Jun-19 03:00N 34°41' E 135°11'0 0.0
2017-Jun-19 02:28N 34°41' E 135°11'0 0.0
2017-Jun-19 01:58N 34°41' E 135°11'0 0.0
2017-Jun-19 01:28N 34°41' E 135°11'0 0.0
2017-Jun-19 00:58N 34°41' E 135°11'0 0.0
2017-Jun-19 00:28N 34°41' E 135°11'0 0.0
2017-Jun-18 23:58N 34°41' E 135°11'0 0.0
2017-Jun-18 23:22N 34°41' E 135°11'0 0.0
2017-Jun-18 22:40N 34°41' E 135°11'0 0.0
2017-Jun-18 22:16N 34°41' E 135°11'0 0.0
2017-Jun-18 21:58N 34°41' E 135°11'0 0.0
2017-Jun-18 21:22N 34°41' E 135°11'0 0.0
2017-Jun-18 20:58N 34°41' E 135°11'0 0.0
2017-Jun-18 20:22N 34°41' E 135°11'0 0.0
2017-Jun-18 19:58N 34°41' E 135°11'0 0.0
2017-Jun-18 19:28N 34°41' E 135°11'0 0.0
2017-Jun-18 18:52N 34°41' E 135°11'0 0.0
2017-Jun-18 18:28N 34°41' E 135°11'0 0.0
2017-Jun-18 17:58N 34°41' E 135°11'0 0.0
2017-Jun-18 17:28N 34°41' E 135°11'0 0.0
2017-Jun-18 16:46N 34°41' E 135°11'0 0.0
2017-Jun-18 16:28N 34°41' E 135°11'0 0.0
2017-Jun-18 15:58N 34°41' E 135°11'0 0.0
2017-Jun-18 15:28N 34°41' E 135°11'0 0.0
2017-Jun-18 14:46N 34°41' E 135°11'0 0.0
2017-Jun-18 13:58N 34°41' E 135°11'0 0.0
2017-Jun-18 13:28N 34°41' E 135°11'0 0.0
2017-Jun-18 12:52N 34°41' E 135°11'0 0.0
2017-Jun-18 12:28N 34°41' E 135°11'1 2.9
2017-Jun-18 12:00N 34°39' E 135°11'612.4
2017-Jun-18 11:30N 34°35' E 135°06'611.5
2017-Jun-18 11:00N 34°38' E 134°59'612.6
2017-Jun-18 10:30N 34°37' E 135°07'510.3
2017-Jun-18 10:00N 34°41' E 135°11'0 0.0
2017-Jun-18 09:26N 34°41' E 135°11'0 0.0
2017-Jun-18 08:59N 34°41' E 135°11'2 4.5
2017-Jun-18 08:30N 34°39' E 135°11'3 5.5
2017-Jun-18 08:00N 34°37' E 135°09'3 6.5
2017-Jun-18 07:30N 34°38' E 135°12'3 6.7
2017-Jun-18 07:00N 34°41' E 135°11'0 0.0
2017-Jun-18 06:26N 34°41' E 135°11'0 0.0
2017-Jun-18 05:56N 34°41' E 135°11'0 0.0
2017-Jun-18 05:26N 34°41' E 135°11'0 0.0
2017-Jun-18 04:59N 34°41' E 135°11'3 5.4
2017-Jun-18 04:30N 34°38' E 135°10'4 7.3
2017-Jun-18 04:00N 34°37' E 135°06'510.1
2017-Jun-18 03:30N 34°38' E 135°12'3 6.6
2017-Jun-18 03:00N 34°41' E 135°11'0 0.0
2017-Jun-18 02:19N 34°41' E 135°11'0 0.0
2017-Jun-18 01:55N 34°41' E 135°11'0 0.0
2017-Jun-18 01:25N 34°41' E 135°11'0 0.0
2017-Jun-18 00:55N 34°41' E 135°11'0 0.0
2017-Jun-18 00:25N 34°41' E 135°11'0 0.0
2017-Jun-17 23:55N 34°41' E 135°11'0 0.0
2017-Jun-17 23:25N 34°41' E 135°11'0 0.0
2017-Jun-17 22:55N 34°41' E 135°11'0 0.0
2017-Jun-17 22:25N 34°41' E 135°11'0 0.0
2017-Jun-17 21:49N 34°41' E 135°11'0 0.0
2017-Jun-17 21:25N 34°41' E 135°11'0 0.0
2017-Jun-17 20:55N 34°41' E 135°11'0 0.0
2017-Jun-17 20:25N 34°41' E 135°11'0 0.0
2017-Jun-17 19:49N 34°41' E 135°11'0 0.0
2017-Jun-17 19:25N 34°41' E 135°11'0 0.0
2017-Jun-17 18:55N 34°41' E 135°11'0 0.0
2017-Jun-17 18:25N 34°41' E 135°11'0 0.0
2017-Jun-17 17:55N 34°41' E 135°11'0 0.0
2017-Jun-17 17:25N 34°41' E 135°11'0 0.0
2017-Jun-17 16:55N 34°41' E 135°11'0 0.0
2017-Jun-17 16:25N 34°41' E 135°11'0 0.0
2017-Jun-17 15:55N 34°41' E 135°11'0 0.0
2017-Jun-17 15:25N 34°41' E 135°11'0 0.0
2017-Jun-17 14:55N 34°41' E 135°11'0 0.0
2017-Jun-17 14:25N 34°41' E 135°11'0 0.0
2017-Jun-17 13:25N 34°41' E 135°11'0 0.0
2017-Jun-17 12:55N 34°41' E 135°11'0 0.0
2017-Jun-17 12:25N 34°41' E 135°11'1 2.7
2017-Jun-17 12:00N 34°40' E 135°12'612.2
2017-Jun-17 11:30N 34°35' E 135°06'611.1
2017-Jun-17 11:00N 34°37' E 134°60'612.4
2017-Jun-17 10:30N 34°37' E 135°08'5 9.9
2017-Jun-17 10:00N 34°41' E 135°11'0 0.0
2017-Jun-17 09:23N 34°41' E 135°11'0 0.0
2017-Jun-17 08:59N 34°41' E 135°11'2 4.6
2017-Jun-17 08:30N 34°39' E 135°11'3 5.4
2017-Jun-17 08:00N 34°37' E 135°09'3 6.7
2017-Jun-17 07:31N 34°38' E 135°13'3 6.8
2017-Jun-17 07:01N 34°41' E 135°11'0 0.0
2017-Jun-17 06:30N 34°41' E 135°11'0 0.0
2017-Jun-17 06:00N 34°41' E 135°11'0 0.0
2017-Jun-17 05:30N 34°41' E 135°11'0 0.0
2017-Jun-17 05:00N 34°41' E 135°11'3 5.5
2017-Jun-17 04:30N 34°38' E 135°10'4 7.6
2017-Jun-17 04:01N 34°36' E 135°06'510.7
2017-Jun-17 03:30N 34°38' E 135°13'3 6.8
2017-Jun-17 03:00N 34°41' E 135°11'0 0.0
2017-Jun-17 02:28N 34°41' E 135°11'0 0.0
2017-Jun-17 01:58N 34°41' E 135°11'0 0.0
2017-Jun-17 01:28N 34°41' E 135°11'0 0.0
2017-Jun-17 00:58N 34°41' E 135°11'0 0.0
2017-Jun-17 00:28N 34°41' E 135°11'0 0.0
2017-Jun-16 23:58N 34°41' E 135°11'0 0.0
2017-Jun-16 23:28N 34°41' E 135°11'0 0.0
2017-Jun-16 22:58N 34°41' E 135°11'0 0.0
2017-Jun-16 22:28N 34°41' E 135°11'0 0.0
2017-Jun-16 21:40N 34°41' E 135°11'0 0.0
2017-Jun-16 21:28N 34°41' E 135°11'0 0.0
2017-Jun-16 20:40N 34°41' E 135°11'0 0.0
2017-Jun-16 20:28N 34°41' E 135°11'0 0.0
2017-Jun-16 19:52N 34°41' E 135°11'0 0.0
2017-Jun-16 19:28N 34°41' E 135°11'0 0.0
2017-Jun-16 18:58N 34°41' E 135°11'0 0.0
2017-Jun-16 18:22N 34°41' E 135°11'0 0.0
2017-Jun-16 17:58N 34°41' E 135°11'0 0.0
2017-Jun-16 17:28N 34°41' E 135°11'0 0.0
2017-Jun-16 16:58N 34°41' E 135°11'0 0.0
2017-Jun-16 16:28N 34°41' E 135°11'0 0.0
2017-Jun-16 15:52N 34°41' E 135°11'0 0.0
2017-Jun-16 15:28N 34°41' E 135°11'0 0.0
2017-Jun-16 14:58N 34°41' E 135°11'0 0.0
2017-Jun-16 14:28N 34°41' E 135°11'0 0.0
2017-Jun-16 13:28N 34°41' E 135°11'0 0.0
2017-Jun-16 12:58N 34°41' E 135°11'0 0.0
2017-Jun-16 12:28N 34°41' E 135°11'1 2.7
2017-Jun-16 12:01N 34°40' E 135°11'611.9
2017-Jun-16 11:31N 34°35' E 135°06'611.6
2017-Jun-16 11:00N 34°37' E 134°60'612.6
2017-Jun-16 10:30N 34°37' E 135°07'510.3
2017-Jun-16 09:59N 34°41' E 135°11'0 0.0
2017-Jun-16 09:30N 34°41' E 135°11'1 2.1
2017-Jun-16 09:00N 34°40' E 135°12'4 8.4
2017-Jun-16 08:30N 34°38' E 135°07'5 9.5
2017-Jun-16 08:00N 34°41' E 135°11'0 0.0
2017-Jun-16 07:25N 34°41' E 135°11'0 0.0
2017-Jun-16 06:55N 34°41' E 135°11'0 0.0
2017-Jun-16 06:25N 34°41' E 135°11'0 0.0
2017-Jun-16 05:55N 34°41' E 135°11'0 0.0
2017-Jun-16 05:19N 34°41' E 135°11'0 0.0
2017-Jun-16 05:00N 34°41' E 135°11'2 4.7
2017-Jun-16 04:30N 34°39' E 135°11'4 8.6
2017-Jun-16 04:00N 34°37' E 135°06'510.4
2017-Jun-16 03:30N 34°38' E 135°12'3 6.6
2017-Jun-16 03:00N 34°41' E 135°11'0 0.0
2017-Jun-16 02:19N 34°41' E 135°11'0 0.0
2017-Jun-16 01:55N 34°41' E 135°11'0 0.0
2017-Jun-16 01:25N 34°41' E 135°11'0 0.0
2017-Jun-16 00:55N 34°41' E 135°11'0 0.0
2017-Jun-16 00:25N 34°41' E 135°11'0 0.0
2017-Jun-15 23:49N 34°41' E 135°11'0 0.0
2017-Jun-15 23:25N 34°41' E 135°11'0 0.0
2017-Jun-15 22:55N 34°41' E 135°11'0 0.0
2017-Jun-15 22:25N 34°41' E 135°11'0 0.0
2017-Jun-15 21:43N 34°41' E 135°11'0 0.0
2017-Jun-15 21:25N 34°41' E 135°11'0 0.0
2017-Jun-15 20:43N 34°41' E 135°11'0 0.0
2017-Jun-15 20:25N 34°41' E 135°11'0 0.0
2017-Jun-15 19:55N 34°41' E 135°11'0 0.0
2017-Jun-15 19:25N 34°41' E 135°11'0 0.0
2017-Jun-15 18:55N 34°41' E 135°11'0 0.0
2017-Jun-15 18:25N 34°41' E 135°11'0 0.0
2017-Jun-15 17:55N 34°41' E 135°11'0 0.0
2017-Jun-15 17:25N 34°41' E 135°11'0 0.0
2017-Jun-15 16:55N 34°41' E 135°11'0 0.0
2017-Jun-15 16:25N 34°41' E 135°11'0 0.0
2017-Jun-15 15:55N 34°41' E 135°11'0 0.0
2017-Jun-15 15:19N 34°41' E 135°11'0 0.0
2017-Jun-15 14:55N 34°41' E 135°11'0 0.0
2017-Jun-15 13:55N 34°41' E 135°11'0 0.0
2017-Jun-15 13:25N 34°41' E 135°11'0 0.0
2017-Jun-15 12:55N 34°41' E 135°11'0 0.0
2017-Jun-15 12:25N 34°41' E 135°11'1 3.1
2017-Jun-15 12:00N 34°40' E 135°11'612.0
2017-Jun-15 11:30N 34°35' E 135°06'610.9
2017-Jun-15 10:59N 34°38' E 134°60'612.3
2017-Jun-15 10:31N 34°37' E 135°07'510.5
2017-Jun-15 10:00N 34°41' E 135°11'0 0.0
2017-Jun-15 09:29N 34°41' E 135°11'1 2.5
2017-Jun-15 09:00N 34°40' E 135°11'4 8.2
2017-Jun-15 08:31N 34°37' E 135°07'5 9.6
2017-Jun-15 08:00N 34°41' E 135°11'0 0.0
2017-Jun-15 07:26N 34°41' E 135°11'  

Dump ship's entire track history